LFMD

Cannes - Mandelieu Airport

Airport
ICAO code
LFMD
IATA Code
CEQ
Summary
ICAO Region
EUR
ICAO Territory
Location

Mandelieu, Provence-Alpes-Cote d'Azur

Serving
Cannes
Elevation
13 ft
Coordinates
43° 32' 49" N , 6° 57' 12" E
KCC
Airport WX
Cumulonimbus
Metar
Observation
LFMD 092000Z AUTO 16003KT 120V190 9999 FEW019 11/10 Q0999
Station
Cannes
Date/Time
2022-12-09 20:00:00
Wind direction
160°
Wind speed
03 kts
Lowest cloud amount
few clouds
Temperature
11°C
Dew point
10°C
Humidity
93%
QNH
999 hPa
Weather condition
n/a

Description

Cannes - Mandelieu Airport is an airport serving the city of Cannes. It is located 5 km west of Cannes.

Climatology

Dry-summer subtropical ”Mditerranean" climate (Köppen climate classification Csa) - characterized by hot, dry summers and mild winters. During the summer, subtropical high pressure cells dominate, making rainfall unlikely except for the occasional thunderstorm. In the winter, periodic storms bring rain (snow at higher elevations).

Runways

Designator Length Width Surface Rops
5/23 760 30 ASP Yes/Yes
17/35 1610 45 ASP Yes/Yes

Airport map

Aerial View

SKYbrary Partners:

Safety knowledge contributed by: